sensor_id;sensor_type;location;lat;lon;timestamp;P1;durP1;ratioP1;P2;durP2;ratioP2
70337;SDS011;57757;53.198;19.646;2022-10-16T00:01:42;33.30;;;18.80;;
70337;SDS011;57757;53.198;19.646;2022-10-16T00:04:10;32.00;;;18.30;;
70337;SDS011;57757;53.198;19.646;2022-10-16T00:06:38;31.70;;;17.40;;
70337;SDS011;57757;53.198;19.646;2022-10-16T00:09:06;31.10;;;17.30;;
70337;SDS011;57757;53.198;19.646;2022-10-16T00:11:35;29.50;;;16.90;;
70337;SDS011;57757;53.198;19.646;2022-10-16T00:14:07;30.60;;;18.20;;
70337;SDS011;57757;53.198;19.646;2022-10-16T00:16:38;36.10;;;19.20;;
70337;SDS011;57757;53.198;19.646;2022-10-16T00:19:06;34.90;;;19.40;;
70337;SDS011;57757;53.198;19.646;2022-10-16T00:21:34;31.00;;;18.10;;
70337;SDS011;57757;53.198;19.646;2022-10-16T00:24:06;31.70;;;17.60;;
70337;SDS011;57757;53.198;19.646;2022-10-16T00:26:37;30.10;;;17.00;;
70337;SDS011;57757;53.198;19.646;2022-10-16T00:29:06;31.00;;;18.50;;
70337;SDS011;57757;53.198;19.646;2022-10-16T00:31:34;31.10;;;17.90;;
70337;SDS011;57757;53.198;19.646;2022-10-16T00:34:02;31.60;;;17.30;;
70337;SDS011;57757;53.198;19.646;2022-10-16T00:36:30;30.70;;;16.10;;
70337;SDS011;57757;53.198;19.646;2022-10-16T00:38:59;29.30;;;18.00;;
70337;SDS011;57757;53.198;19.646;2022-10-16T00:41:27;31.80;;;17.90;;
70337;SDS011;57757;53.198;19.646;2022-10-16T00:43:56;30.20;;;17.70;;
70337;SDS011;57757;53.198;19.646;2022-10-16T00:46:35;29.80;;;18.10;;
70337;SDS011;57757;53.198;19.646;2022-10-16T00:51:45;26.80;;;16.30;;
70337;SDS011;57757;53.198;19.646;2022-10-16T00:54:19;30.00;;;17.00;;
70337;SDS011;57757;53.198;19.646;2022-10-16T00:56:51;26.50;;;16.70;;
70337;SDS011;57757;53.198;19.646;2022-10-16T00:59:31;31.90;;;17.70;;
70337;SDS011;57757;53.198;19.646;2022-10-16T01:02:02;30.70;;;17.00;;
70337;SDS011;57757;53.198;19.646;2022-10-16T01:04:33;30.50;;;15.90;;
70337;SDS011;57757;53.198;19.646;2022-10-16T01:09:47;30.40;;;17.40;;
70337;SDS011;57757;53.198;19.646;2022-10-16T01:18:14;27.60;;;16.10;;
70337;SDS011;57757;53.198;19.646;2022-10-16T01:20:54;25.60;;;15.50;;
70337;SDS011;57757;53.198;19.646;2022-10-16T01:29:39;25.60;;;15.90;;
70337;SDS011;57757;53.198;19.646;2022-10-16T01:37:46;24.90;;;14.60;;
70337;SDS011;57757;53.198;19.646;2022-10-16T01:40:20;30.40;;;15.20;;
70337;SDS011;57757;53.198;19.646;2022-10-16T01:42:55;23.80;;;14.80;;
70337;SDS011;57757;53.198;19.646;2022-10-16T01:45:28;28.40;;;15.80;;
70337;SDS011;57757;53.198;19.646;2022-10-16T01:48:00;29.20;;;15.50;;
70337;SDS011;57757;53.198;19.646;2022-10-16T01:50:32;27.10;;;15.40;;
70337;SDS011;57757;53.198;19.646;2022-10-16T01:53:03;25.10;;;13.90;;
70337;SDS011;57757;53.198;19.646;2022-10-16T01:55:35;26.20;;;15.70;;
70337;SDS011;57757;53.198;19.646;2022-10-16T01:58:07;26.70;;;15.10;;
70337;SDS011;57757;53.198;19.646;2022-10-16T02:00:38;26.30;;;15.10;;
70337;SDS011;57757;53.198;19.646;2022-10-16T02:03:08;26.40;;;15.90;;
70337;SDS011;57757;53.198;19.646;2022-10-16T02:05:45;23.60;;;14.40;;
70337;SDS011;57757;53.198;19.646;2022-10-16T02:08:17;23.20;;;12.90;;
70337;SDS011;57757;53.198;19.646;2022-10-16T02:10:45;24.70;;;14.30;;
70337;SDS011;57757;53.198;19.646;2022-10-16T02:13:13;27.50;;;15.40;;
70337;SDS011;57757;53.198;19.646;2022-10-16T02:15:47;25.70;;;15.20;;
70337;SDS011;57757;53.198;19.646;2022-10-16T02:18:14;26.90;;;14.70;;
70337;SDS011;57757;53.198;19.646;2022-10-16T02:20:48;22.90;;;13.40;;
70337;SDS011;57757;53.198;19.646;2022-10-16T02:23:28;22.50;;;13.60;;
70337;SDS011;57757;53.198;19.646;2022-10-16T02:26:03;24.00;;;13.50;;
70337;SDS011;57757;53.198;19.646;2022-10-16T02:28:37;24.40;;;14.30;;
70337;SDS011;57757;53.198;19.646;2022-10-16T02:31:11;24.80;;;14.00;;
70337;SDS011;57757;53.198;19.646;2022-10-16T02:33:43;22.30;;;13.30;;
70337;SDS011;57757;53.198;19.646;2022-10-16T02:36:13;23.50;;;12.70;;
70337;SDS011;57757;53.198;19.646;2022-10-16T02:38:41;21.80;;;12.60;;
70337;SDS011;57757;53.198;19.646;2022-10-16T02:41:09;23.70;;;13.80;;
70337;SDS011;57757;53.198;19.646;2022-10-16T02:43:37;22.90;;;13.80;;
70337;SDS011;57757;53.198;19.646;2022-10-16T02:46:05;23.60;;;14.20;;
70337;SDS011;57757;53.198;19.646;2022-10-16T02:48:33;24.20;;;14.10;;
70337;SDS011;57757;53.198;19.646;2022-10-16T02:51:02;23.70;;;12.90;;
70337;SDS011;57757;53.198;19.646;2022-10-16T02:53:29;24.60;;;12.60;;
70337;SDS011;57757;53.198;19.646;2022-10-16T02:55:57;24.80;;;13.60;;
70337;SDS011;57757;53.198;19.646;2022-10-16T02:58:25;25.60;;;14.10;;
70337;SDS011;57757;53.198;19.646;2022-10-16T03:00:52;24.70;;;13.50;;
70337;SDS011;57757;53.198;19.646;2022-10-16T03:03:20;24.40;;;13.90;;
70337;SDS011;57757;53.198;19.646;2022-10-16T03:05:47;23.30;;;12.30;;
70337;SDS011;57757;53.198;19.646;2022-10-16T03:08:15;23.00;;;11.20;;
70337;SDS011;57757;53.198;19.646;2022-10-16T03:10:43;22.10;;;11.90;;
70337;SDS011;57757;53.198;19.646;2022-10-16T03:13:11;22.90;;;12.20;;
70337;SDS011;57757;53.198;19.646;2022-10-16T03:15:38;22.40;;;13.10;;
70337;SDS011;57757;53.198;19.646;2022-10-16T03:18:06;22.60;;;12.70;;
70337;SDS011;57757;53.198;19.646;2022-10-16T03:20:34;21.60;;;13.10;;
70337;SDS011;57757;53.198;19.646;2022-10-16T03:23:01;23.10;;;12.10;;
70337;SDS011;57757;53.198;19.646;2022-10-16T03:25:29;20.90;;;11.10;;
70337;SDS011;57757;53.198;19.646;2022-10-16T03:27:57;22.00;;;12.40;;
70337;SDS011;57757;53.198;19.646;2022-10-16T03:30:25;22.30;;;12.80;;
70337;SDS011;57757;53.198;19.646;2022-10-16T03:32:52;24.30;;;11.80;;
70337;SDS011;57757;53.198;19.646;2022-10-16T03:35:22;23.50;;;11.60;;
70337;SDS011;57757;53.198;19.646;2022-10-16T03:37:50;22.40;;;11.60;;
70337;SDS011;57757;53.198;19.646;2022-10-16T03:40:18;18.90;;;10.30;;
70337;SDS011;57757;53.198;19.646;2022-10-16T03:42:46;24.70;;;11.90;;
70337;SDS011;57757;53.198;19.646;2022-10-16T03:45:13;19.40;;;11.70;;
70337;SDS011;57757;53.198;19.646;2022-10-16T03:47:41;18.80;;;10.80;;
70337;SDS011;57757;53.198;19.646;2022-10-16T03:50:09;18.90;;;10.70;;
70337;SDS011;57757;53.198;19.646;2022-10-16T03:52:36;18.90;;;10.80;;
70337;SDS011;57757;53.198;19.646;2022-10-16T03:55:04;19.50;;;11.00;;
70337;SDS011;57757;53.198;19.646;2022-10-16T03:57:32;21.60;;;11.00;;
70337;SDS011;57757;53.198;19.646;2022-10-16T03:59:59;20.30;;;10.80;;
70337;SDS011;57757;53.198;19.646;2022-10-16T04:02:27;19.50;;;10.80;;
70337;SDS011;57757;53.198;19.646;2022-10-16T04:04:55;17.60;;;10.30;;
70337;SDS011;57757;53.198;19.646;2022-10-16T04:07:22;20.70;;;9.90;;
70337;SDS011;57757;53.198;19.646;2022-10-16T04:09:50;19.30;;;10.60;;
70337;SDS011;57757;53.198;19.646;2022-10-16T04:12:19;19.00;;;10.50;;
70337;SDS011;57757;53.198;19.646;2022-10-16T04:14:47;19.30;;;11.00;;
70337;SDS011;57757;53.198;19.646;2022-10-16T04:17:14;19.10;;;10.40;;
70337;SDS011;57757;53.198;19.646;2022-10-16T04:19:42;16.30;;;9.60;;
70337;SDS011;57757;53.198;19.646;2022-10-16T04:22:09;17.60;;;9.50;;
70337;SDS011;57757;53.198;19.646;2022-10-16T04:24:37;19.10;;;10.40;;
70337;SDS011;57757;53.198;19.646;2022-10-16T04:27:05;18.10;;;10.40;;
70337;SDS011;57757;53.198;19.646;2022-10-16T04:29:32;19.30;;;10.30;;
70337;SDS011;57757;53.198;19.646;2022-10-16T04:32:00;18.30;;;10.50;;
70337;SDS011;57757;53.198;19.646;2022-10-16T04:34:27;17.30;;;9.30;;
70337;SDS011;57757;53.198;19.646;2022-10-16T04:36:55;20.30;;;9.50;;
70337;SDS011;57757;53.198;19.646;2022-10-16T04:39:22;19.90;;;10.50;;
70337;SDS011;57757;53.198;19.646;2022-10-16T04:41:50;17.90;;;9.80;;
70337;SDS011;57757;53.198;19.646;2022-10-16T04:44:18;19.10;;;10.00;;
70337;SDS011;57757;53.198;19.646;2022-10-16T04:46:45;18.10;;;9.30;;
70337;SDS011;57757;53.198;19.646;2022-10-16T04:49:13;15.20;;;8.40;;
70337;SDS011;57757;53.198;19.646;2022-10-16T04:51:40;15.70;;;8.40;;
70337;SDS011;57757;53.198;19.646;2022-10-16T04:54:08;19.80;;;9.10;;
70337;SDS011;57757;53.198;19.646;2022-10-16T04:56:37;17.20;;;9.70;;
70337;SDS011;57757;53.198;19.646;2022-10-16T04:59:10;17.20;;;10.40;;
70337;SDS011;57757;53.198;19.646;2022-10-16T05:01:38;16.90;;;8.90;;
70337;SDS011;57757;53.198;19.646;2022-10-16T05:04:05;20.00;;;8.80;;
70337;SDS011;57757;53.198;19.646;2022-10-16T05:06:33;15.90;;;8.70;;
70337;SDS011;57757;53.198;19.646;2022-10-16T05:09:01;14.40;;;8.30;;
70337;SDS011;57757;53.198;19.646;2022-10-16T05:11:28;18.10;;;11.50;;
70337;SDS011;57757;53.198;19.646;2022-10-16T05:13:56;34.10;;;18.20;;
70337;SDS011;57757;53.198;19.646;2022-10-16T05:16:23;18.30;;;11.10;;
70337;SDS011;57757;53.198;19.646;2022-10-16T05:18:51;15.70;;;8.00;;
70337;SDS011;57757;53.198;19.646;2022-10-16T05:21:30;16.40;;;8.80;;
70337;SDS011;57757;53.198;19.646;2022-10-16T05:23:58;15.60;;;9.30;;
70337;SDS011;57757;53.198;19.646;2022-10-16T05:26:26;15.60;;;8.60;;
70337;SDS011;57757;53.198;19.646;2022-10-16T05:28:53;14.70;;;8.00;;
70337;SDS011;57757;53.198;19.646;2022-10-16T05:31:21;18.80;;;9.20;;
70337;SDS011;57757;53.198;19.646;2022-10-16T05:33:49;14.30;;;7.40;;
70337;SDS011;57757;53.198;19.646;2022-10-16T05:36:16;15.00;;;7.70;;
70337;SDS011;57757;53.198;19.646;2022-10-16T05:38:45;16.20;;;7.60;;
70337;SDS011;57757;53.198;19.646;2022-10-16T05:41:13;18.90;;;8.30;;
70337;SDS011;57757;53.198;19.646;2022-10-16T05:43:41;16.10;;;8.80;;
70337;SDS011;57757;53.198;19.646;2022-10-16T05:46:08;15.00;;;7.70;;
70337;SDS011;57757;53.198;19.646;2022-10-16T05:48:36;17.40;;;7.90;;
70337;SDS011;57757;53.198;19.646;2022-10-16T05:51:05;15.30;;;8.00;;
70337;SDS011;57757;53.198;19.646;2022-10-16T05:53:35;16.50;;;8.30;;
70337;SDS011;57757;53.198;19.646;2022-10-16T05:56:05;15.70;;;7.90;;
70337;SDS011;57757;53.198;19.646;2022-10-16T05:58:35;15.60;;;8.30;;
70337;SDS011;57757;53.198;19.646;2022-10-16T06:01:11;13.10;;;7.10;;
70337;SDS011;57757;53.198;19.646;2022-10-16T06:03:39;15.90;;;7.40;;
70337;SDS011;57757;53.198;19.646;2022-10-16T06:06:11;15.10;;;8.00;;
70337;SDS011;57757;53.198;19.646;2022-10-16T06:08:41;14.10;;;7.10;;
70337;SDS011;57757;53.198;19.646;2022-10-16T06:11:11;14.20;;;7.30;;
70337;SDS011;57757;53.198;19.646;2022-10-16T06:13:41;14.30;;;7.60;;
70337;SDS011;57757;53.198;19.646;2022-10-16T06:16:10;14.70;;;7.10;;
70337;SDS011;57757;53.198;19.646;2022-10-16T06:18:38;14.40;;;7.20;;
70337;SDS011;57757;53.198;19.646;2022-10-16T06:21:09;16.70;;;7.90;;
70337;SDS011;57757;53.198;19.646;2022-10-16T06:23:38;15.30;;;7.80;;
70337;SDS011;57757;53.198;19.646;2022-10-16T06:26:10;12.80;;;7.40;;
70337;SDS011;57757;53.198;19.646;2022-10-16T06:28:40;13.60;;;7.30;;
70337;SDS011;57757;53.198;19.646;2022-10-16T06:31:09;16.40;;;7.90;;
70337;SDS011;57757;53.198;19.646;2022-10-16T06:33:38;13.70;;;7.10;;
70337;SDS011;57757;53.198;19.646;2022-10-16T06:36:10;13.50;;;7.00;;
70337;SDS011;57757;53.198;19.646;2022-10-16T06:38:40;17.90;;;8.00;;
70337;SDS011;57757;53.198;19.646;2022-10-16T06:41:16;13.60;;;7.30;;
70337;SDS011;57757;53.198;19.646;2022-10-16T06:43:47;14.30;;;7.40;;
70337;SDS011;57757;53.198;19.646;2022-10-16T06:46:16;14.60;;;7.60;;
70337;SDS011;57757;53.198;19.646;2022-10-16T06:48:45;20.30;;;9.90;;
70337;SDS011;57757;53.198;19.646;2022-10-16T06:51:15;19.20;;;9.40;;
70337;SDS011;57757;53.198;19.646;2022-10-16T06:53:46;20.20;;;9.30;;
70337;SDS011;57757;53.198;19.646;2022-10-16T06:56:32;25.20;;;11.30;;
70337;SDS011;57757;53.198;19.646;2022-10-16T06:59:02;17.80;;;9.50;;
70337;SDS011;57757;53.198;19.646;2022-10-16T07:01:30;16.30;;;8.10;;
70337;SDS011;57757;53.198;19.646;2022-10-16T07:03:57;25.10;;;10.80;;
70337;SDS011;57757;53.198;19.646;2022-10-16T07:06:25;23.50;;;10.60;;
70337;SDS011;57757;53.198;19.646;2022-10-16T07:08:55;16.50;;;7.70;;
70337;SDS011;57757;53.198;19.646;2022-10-16T07:11:23;13.80;;;7.00;;
70337;SDS011;57757;53.198;19.646;2022-10-16T07:13:51;14.80;;;6.90;;
70337;SDS011;57757;53.198;19.646;2022-10-16T07:16:23;11.90;;;6.80;;
70337;SDS011;57757;53.198;19.646;2022-10-16T07:18:54;12.40;;;6.50;;
70337;SDS011;57757;53.198;19.646;2022-10-16T07:21:28;12.60;;;6.50;;
70337;SDS011;57757;53.198;19.646;2022-10-16T07:23:58;21.90;;;10.20;;
70337;SDS011;57757;53.198;19.646;2022-10-16T07:26:30;13.90;;;7.30;;
70337;SDS011;57757;53.198;19.646;2022-10-16T07:28:59;48.80;;;20.80;;
70337;SDS011;57757;53.198;19.646;2022-10-16T07:31:28;17.90;;;8.60;;
70337;SDS011;57757;53.198;19.646;2022-10-16T07:33:57;11.90;;;6.70;;
70337;SDS011;57757;53.198;19.646;2022-10-16T07:36:25;13.30;;;6.20;;
70337;SDS011;57757;53.198;19.646;2022-10-16T07:38:53;14.90;;;7.70;;
70337;SDS011;57757;53.198;19.646;2022-10-16T07:41:26;15.20;;;8.30;;
70337;SDS011;57757;53.198;19.646;2022-10-16T07:43:55;25.50;;;16.00;;
70337;SDS011;57757;53.198;19.646;2022-10-16T07:46:27;16.20;;;10.10;;
70337;SDS011;57757;53.198;19.646;2022-10-16T07:49:42;17.20;;;10.20;;
70337;SDS011;57757;53.198;19.646;2022-10-16T07:52:08;17.40;;;9.50;;
70337;SDS011;57757;53.198;19.646;2022-10-16T07:54:43;20.90;;;13.10;;
70337;SDS011;57757;53.198;19.646;2022-10-16T08:04:58;14.50;;;8.00;;
70337;SDS011;57757;53.198;19.646;2022-10-16T08:12:51;13.90;;;7.40;;
70337;SDS011;57757;53.198;19.646;2022-10-16T08:15:22;13.60;;;7.60;;
70337;SDS011;57757;53.198;19.646;2022-10-16T08:20:36;15.80;;;8.20;;
70337;SDS011;57757;53.198;19.646;2022-10-16T08:23:20;13.50;;;7.40;;
70337;SDS011;57757;53.198;19.646;2022-10-16T08:25:48;14.30;;;6.20;;
70337;SDS011;57757;53.198;19.646;2022-10-16T08:28:19;17.70;;;7.10;;
70337;SDS011;57757;53.198;19.646;2022-10-16T08:30:53;13.60;;;7.20;;
70337;SDS011;57757;53.198;19.646;2022-10-16T08:37:30;13.80;;;7.20;;
70337;SDS011;57757;53.198;19.646;2022-10-16T08:39:59;12.80;;;5.90;;
70337;SDS011;57757;53.198;19.646;2022-10-16T08:48:09;20.60;;;9.10;;
70337;SDS011;57757;53.198;19.646;2022-10-16T08:50:41;25.20;;;8.80;;
70337;SDS011;57757;53.198;19.646;2022-10-16T09:23:36;16.20;;;8.50;;
70337;SDS011;57757;53.198;19.646;2022-10-16T09:26:05;25.20;;;11.90;;
70337;SDS011;57757;53.198;19.646;2022-10-16T09:28:37;19.40;;;9.60;;
70337;SDS011;57757;53.198;19.646;2022-10-16T09:31:05;21.90;;;8.90;;
70337;SDS011;57757;53.198;19.646;2022-10-16T09:33:45;32.20;;;11.70;;
70337;SDS011;57757;53.198;19.646;2022-10-16T09:36:23;50.50;;;18.00;;
70337;SDS011;57757;53.198;19.646;2022-10-16T09:41:39;33.00;;;12.00;;
70337;SDS011;57757;53.198;19.646;2022-10-16T09:47:00;33.40;;;13.70;;
70337;SDS011;57757;53.198;19.646;2022-10-16T09:49:30;17.70;;;7.20;;
70337;SDS011;57757;53.198;19.646;2022-10-16T09:52:04;15.60;;;7.20;;
70337;SDS011;57757;53.198;19.646;2022-10-16T09:54:48;14.00;;;6.80;;
70337;SDS011;57757;53.198;19.646;2022-10-16T09:57:22;11.40;;;5.80;;
70337;SDS011;57757;53.198;19.646;2022-10-16T09:59:56;15.10;;;8.00;;
70337;SDS011;57757;53.198;19.646;2022-10-16T10:02:29;12.30;;;6.20;;
70337;SDS011;57757;53.198;19.646;2022-10-16T10:05:01;13.90;;;6.60;;
70337;SDS011;57757;53.198;19.646;2022-10-16T10:07:33;14.50;;;5.80;;
70337;SDS011;57757;53.198;19.646;2022-10-16T10:10:18;11.80;;;5.40;;
70337;SDS011;57757;53.198;19.646;2022-10-16T10:12:53;13.10;;;6.50;;
70337;SDS011;57757;53.198;19.646;2022-10-16T10:15:23;12.10;;;5.40;;
70337;SDS011;57757;53.198;19.646;2022-10-16T10:17:54;14.50;;;7.40;;
70337;SDS011;57757;53.198;19.646;2022-10-16T10:20:31;11.50;;;4.90;;
70337;SDS011;57757;53.198;19.646;2022-10-16T10:25:57;12.10;;;6.60;;
70337;SDS011;57757;53.198;19.646;2022-10-16T10:28:59;20.40;;;9.40;;
70337;SDS011;57757;53.198;19.646;2022-10-16T10:37:02;210.80;;;70.90;;
70337;SDS011;57757;53.198;19.646;2022-10-16T10:40:08;102.50;;;32.20;;
70337;SDS011;57757;53.198;19.646;2022-10-16T10:42:41;52.90;;;15.20;;
70337;SDS011;57757;53.198;19.646;2022-10-16T10:51:12;239.70;;;60.40;;
70337;SDS011;57757;53.198;19.646;2022-10-16T11:02:14;51.30;;;14.30;;
70337;SDS011;57757;53.198;19.646;2022-10-16T11:04:58;50.70;;;13.50;;
70337;SDS011;57757;53.198;19.646;2022-10-16T11:10:44;15.10;;;5.90;;
70337;SDS011;57757;53.198;19.646;2022-10-16T11:13:30;16.80;;;7.00;;
70337;SDS011;57757;53.198;19.646;2022-10-16T11:21:59;19.70;;;7.90;;
70337;SDS011;57757;53.198;19.646;2022-10-16T11:24:37;33.00;;;14.50;;
70337;SDS011;57757;53.198;19.646;2022-10-16T11:27:17;21.20;;;9.50;;
70337;SDS011;57757;53.198;19.646;2022-10-16T11:29:58;21.40;;;8.80;;
70337;SDS011;57757;53.198;19.646;2022-10-16T11:32:32;18.70;;;9.40;;
70337;SDS011;57757;53.198;19.646;2022-10-16T11:35:19;16.90;;;8.00;;
70337;SDS011;57757;53.198;19.646;2022-10-16T11:37:53;12.80;;;7.00;;
70337;SDS011;57757;53.198;19.646;2022-10-16T11:40:27;12.20;;;6.00;;
70337;SDS011;57757;53.198;19.646;2022-10-16T11:43:04;14.60;;;6.60;;
70337;SDS011;57757;53.198;19.646;2022-10-16T11:45:50;14.80;;;8.00;;
70337;SDS011;57757;53.198;19.646;2022-10-16T11:48:23;17.40;;;9.10;;
70337;SDS011;57757;53.198;19.646;2022-10-16T11:56:45;27.00;;;13.40;;
70337;SDS011;57757;53.198;19.646;2022-10-16T12:05:06;27.00;;;12.30;;
70337;SDS011;57757;53.198;19.646;2022-10-16T12:10:39;13.00;;;7.60;;
70337;SDS011;57757;53.198;19.646;2022-10-16T12:13:30;14.40;;;8.00;;
70337;SDS011;57757;53.198;19.646;2022-10-16T12:18:39;16.90;;;9.30;;
70337;SDS011;57757;53.198;19.646;2022-10-16T12:21:09;14.20;;;8.40;;
70337;SDS011;57757;53.198;19.646;2022-10-16T12:23:49;16.40;;;9.20;;
70337;SDS011;57757;53.198;19.646;2022-10-16T12:26:26;18.30;;;9.90;;
70337;SDS011;57757;53.198;19.646;2022-10-16T12:29:13;17.60;;;11.00;;
70337;SDS011;57757;53.198;19.646;2022-10-16T12:31:53;32.50;;;15.10;;
70337;SDS011;57757;53.198;19.646;2022-10-16T12:37:19;24.60;;;15.40;;
70337;SDS011;57757;53.198;19.646;2022-10-16T12:39:52;18.70;;;12.30;;
70337;SDS011;57757;53.198;19.646;2022-10-16T12:44:56;22.00;;;13.50;;
70337;SDS011;57757;53.198;19.646;2022-10-16T12:47:35;24.50;;;14.90;;
70337;SDS011;57757;53.198;19.646;2022-10-16T12:50:22;18.90;;;10.60;;
70337;SDS011;57757;53.198;19.646;2022-10-16T12:52:58;19.70;;;11.00;;
70337;SDS011;57757;53.198;19.646;2022-10-16T12:55:27;16.80;;;9.80;;
70337;SDS011;57757;53.198;19.646;2022-10-16T13:04:04;51.70;;;18.50;;
70337;SDS011;57757;53.198;19.646;2022-10-16T13:10:14;32.10;;;14.30;;
70337;SDS011;57757;53.198;19.646;2022-10-16T13:18:28;24.40;;;11.40;;
70337;SDS011;57757;53.198;19.646;2022-10-16T13:30:00;42.50;;;15.90;;
70337;SDS011;57757;53.198;19.646;2022-10-16T13:32:38;30.70;;;16.30;;
70337;SDS011;57757;53.198;19.646;2022-10-16T13:38:15;23.60;;;11.90;;
70337;SDS011;57757;53.198;19.646;2022-10-16T13:40:48;24.60;;;12.50;;
70337;SDS011;57757;53.198;19.646;2022-10-16T13:43:59;22.10;;;10.50;;
70337;SDS011;57757;53.198;19.646;2022-10-16T13:46:27;18.50;;;9.60;;
70337;SDS011;57757;53.198;19.646;2022-10-16T13:49:12;19.80;;;8.90;;
70337;SDS011;57757;53.198;19.646;2022-10-16T13:52:01;16.80;;;8.50;;
70337;SDS011;57757;53.198;19.646;2022-10-16T13:54:29;19.50;;;11.10;;
70337;SDS011;57757;53.198;19.646;2022-10-16T13:57:27;20.50;;;10.40;;
70337;SDS011;57757;53.198;19.646;2022-10-16T13:59:55;40.10;;;23.40;;
70337;SDS011;57757;53.198;19.646;2022-10-16T14:02:31;19.40;;;10.20;;
70337;SDS011;57757;53.198;19.646;2022-10-16T14:05:08;18.80;;;10.20;;
70337;SDS011;57757;53.198;19.646;2022-10-16T14:07:49;19.00;;;8.70;;
70337;SDS011;57757;53.198;19.646;2022-10-16T14:10:51;16.80;;;9.10;;
70337;SDS011;57757;53.198;19.646;2022-10-16T14:13:36;19.30;;;9.30;;
70337;SDS011;57757;53.198;19.646;2022-10-16T14:16:32;21.80;;;12.10;;
70337;SDS011;57757;53.198;19.646;2022-10-16T14:19:02;24.10;;;13.80;;
70337;SDS011;57757;53.198;19.646;2022-10-16T14:21:37;37.30;;;22.00;;
70337;SDS011;57757;53.198;19.646;2022-10-16T14:36:01;31.80;;;18.20;;
70337;SDS011;57757;53.198;19.646;2022-10-16T14:38:32;23.70;;;12.00;;
70337;SDS011;57757;53.198;19.646;2022-10-16T14:41:00;27.40;;;14.70;;
70337;SDS011;57757;53.198;19.646;2022-10-16T14:43:33;37.30;;;16.80;;
70337;SDS011;57757;53.198;19.646;2022-10-16T14:46:04;71.00;;;32.40;;
70337;SDS011;57757;53.198;19.646;2022-10-16T14:48:49;45.10;;;17.60;;
70337;SDS011;57757;53.198;19.646;2022-10-16T14:51:18;62.90;;;18.50;;
70337;SDS011;57757;53.198;19.646;2022-10-16T14:53:47;104.70;;;43.70;;
70337;SDS011;57757;53.198;19.646;2022-10-16T14:56:17;133.90;;;66.80;;
70337;SDS011;57757;53.198;19.646;2022-10-16T14:58:47;58.80;;;29.40;;
70337;SDS011;57757;53.198;19.646;2022-10-16T15:01:17;32.60;;;15.80;;
70337;SDS011;57757;53.198;19.646;2022-10-16T15:03:46;27.00;;;13.40;;
70337;SDS011;57757;53.198;19.646;2022-10-16T15:06:15;21.40;;;10.80;;
70337;SDS011;57757;53.198;19.646;2022-10-16T15:08:43;19.60;;;10.50;;
70337;SDS011;57757;53.198;19.646;2022-10-16T15:11:15;17.70;;;9.00;;
70337;SDS011;57757;53.198;19.646;2022-10-16T15:13:45;17.60;;;8.30;;
70337;SDS011;57757;53.198;19.646;2022-10-16T15:16:16;20.70;;;9.10;;
70337;SDS011;57757;53.198;19.646;2022-10-16T15:18:44;21.60;;;8.60;;
70337;SDS011;57757;53.198;19.646;2022-10-16T15:21:34;20.10;;;8.30;;
70337;SDS011;57757;53.198;19.646;2022-10-16T15:24:01;20.40;;;9.10;;
70337;SDS011;57757;53.198;19.646;2022-10-16T15:26:29;29.00;;;14.30;;
70337;SDS011;57757;53.198;19.646;2022-10-16T15:28:58;24.50;;;10.40;;
70337;SDS011;57757;53.198;19.646;2022-10-16T15:31:25;18.00;;;9.40;;
70337;SDS011;57757;53.198;19.646;2022-10-16T15:33:53;18.90;;;10.30;;
70337;SDS011;57757;53.198;19.646;2022-10-16T15:36:26;28.00;;;14.00;;
70337;SDS011;57757;53.198;19.646;2022-10-16T15:38:56;45.30;;;18.90;;
70337;SDS011;57757;53.198;19.646;2022-10-16T15:41:38;42.20;;;20.80;;
70337;SDS011;57757;53.198;19.646;2022-10-16T15:44:14;27.50;;;14.10;;
70337;SDS011;57757;53.198;19.646;2022-10-16T15:46:42;37.60;;;17.10;;
70337;SDS011;57757;53.198;19.646;2022-10-16T15:49:10;38.60;;;20.70;;
70337;SDS011;57757;53.198;19.646;2022-10-16T15:51:41;31.30;;;15.80;;
70337;SDS011;57757;53.198;19.646;2022-10-16T15:54:09;29.70;;;16.70;;
70337;SDS011;57757;53.198;19.646;2022-10-16T15:56:37;24.50;;;12.10;;
70337;SDS011;57757;53.198;19.646;2022-10-16T15:59:05;29.70;;;16.90;;
70337;SDS011;57757;53.198;19.646;2022-10-16T16:01:33;24.20;;;13.50;;
70337;SDS011;57757;53.198;19.646;2022-10-16T16:04:02;21.10;;;13.60;;
70337;SDS011;57757;53.198;19.646;2022-10-16T16:06:43;21.20;;;11.70;;
70337;SDS011;57757;53.198;19.646;2022-10-16T16:09:14;29.00;;;16.60;;
70337;SDS011;57757;53.198;19.646;2022-10-16T16:11:42;37.60;;;20.40;;
70337;SDS011;57757;53.198;19.646;2022-10-16T16:14:10;32.50;;;19.30;;
70337;SDS011;57757;53.198;19.646;2022-10-16T16:16:41;58.00;;;31.60;;
70337;SDS011;57757;53.198;19.646;2022-10-16T16:19:10;28.20;;;16.60;;
70337;SDS011;57757;53.198;19.646;2022-10-16T16:21:38;55.00;;;27.40;;
70337;SDS011;57757;53.198;19.646;2022-10-16T16:24:06;27.50;;;16.90;;
70337;SDS011;57757;53.198;19.646;2022-10-16T16:26:36;20.20;;;11.70;;
70337;SDS011;57757;53.198;19.646;2022-10-16T16:29:08;19.50;;;10.60;;
70337;SDS011;57757;53.198;19.646;2022-10-16T16:31:41;20.40;;;11.50;;
70337;SDS011;57757;53.198;19.646;2022-10-16T16:34:09;46.40;;;26.70;;
70337;SDS011;57757;53.198;19.646;2022-10-16T16:36:37;57.10;;;32.60;;
70337;SDS011;57757;53.198;19.646;2022-10-16T16:39:07;53.40;;;31.10;;
70337;SDS011;57757;53.198;19.646;2022-10-16T16:41:35;49.40;;;27.50;;
70337;SDS011;57757;53.198;19.646;2022-10-16T16:44:04;36.60;;;20.10;;
70337;SDS011;57757;53.198;19.646;2022-10-16T16:46:37;41.10;;;22.60;;
70337;SDS011;57757;53.198;19.646;2022-10-16T16:49:08;48.00;;;25.70;;
70337;SDS011;57757;53.198;19.646;2022-10-16T16:51:38;75.60;;;31.70;;
70337;SDS011;57757;53.198;19.646;2022-10-16T16:54:07;61.20;;;28.10;;
70337;SDS011;57757;53.198;19.646;2022-10-16T16:56:36;97.50;;;54.20;;
70337;SDS011;57757;53.198;19.646;2022-10-16T16:59:05;69.90;;;38.50;;
70337;SDS011;57757;53.198;19.646;2022-10-16T17:01:33;61.60;;;32.40;;
70337;SDS011;57757;53.198;19.646;2022-10-16T17:04:01;42.20;;;23.10;;
70337;SDS011;57757;53.198;19.646;2022-10-16T17:06:29;48.60;;;27.20;;
70337;SDS011;57757;53.198;19.646;2022-10-16T17:09:08;86.00;;;46.20;;
70337;SDS011;57757;53.198;19.646;2022-10-16T17:11:36;41.10;;;23.50;;
70337;SDS011;57757;53.198;19.646;2022-10-16T17:14:04;41.60;;;20.70;;
70337;SDS011;57757;53.198;19.646;2022-10-16T17:16:33;51.10;;;21.10;;
70337;SDS011;57757;53.198;19.646;2022-10-16T17:19:03;61.20;;;25.90;;
70337;SDS011;57757;53.198;19.646;2022-10-16T17:21:34;60.90;;;24.50;;
70337;SDS011;57757;53.198;19.646;2022-10-16T17:24:03;45.80;;;21.40;;
70337;SDS011;57757;53.198;19.646;2022-10-16T17:26:32;40.30;;;19.00;;
70337;SDS011;57757;53.198;19.646;2022-10-16T17:29:05;33.60;;;15.00;;
70337;SDS011;57757;53.198;19.646;2022-10-16T17:31:33;34.00;;;16.20;;
70337;SDS011;57757;53.198;19.646;2022-10-16T17:34:05;32.30;;;15.60;;
70337;SDS011;57757;53.198;19.646;2022-10-16T17:36:35;25.10;;;12.70;;
70337;SDS011;57757;53.198;19.646;2022-10-16T17:39:06;29.50;;;13.50;;